Time;durP1;ratioP1;P1;durP2;ratioP2;P2;SDS_P1;SDS_P2;PMS_P1;PMS_P2;Temp;Humidity;BMP_temperature;BMP_pressure;BME280_temperature;BME280_humidity;BME280_pressure;Samples;Min_cycle;Max_cycle;Signal;HPM_P1;HPM_P2
2023/09/27 00:02:08;;;;;;;;;;;;;;;;;;6156498;23;19946;-89
2023/09/27 00:04:34;;;;;;;;;;;;;;;;;;6154305;23;19916;-89
2023/09/27 00:07:00;;;;;;;;;;;;;;;;;;6155076;23;19912;-89
2023/09/27 00:09:26;;;;;;;;;;;;;;;;;;6154724;23;19924;-89
2023/09/27 00:11:52;;;;;;;;;;;;;;;;;;6156374;23;19911;-89
2023/09/27 00:14:18;;;;;;;;;;;;;;;;;;6156078;23;19908;-89
2023/09/27 00:16:44;;;;;;;;;;;;;;;;;;6155460;23;19956;-90
2023/09/27 00:19:10;;;;;;;;;;;;;;;;;;6184499;23;19904;-93
2023/09/27 00:21:44;;;;;;;;;;;;;;;;;;6182968;23;19908;-93
2023/09/27 00:24:10;;;;;;;;;;;;;;;;;;6157028;23;19912;-94
2023/09/27 00:26:36;;;;;;;;;;;;;;;;;;6156854;23;19935;-93
2023/09/27 00:29:02;;;;;;;;;;;;;;;;;;6158150;23;19909;-93
2023/09/27 00:31:28;;;;;;;;;;;;;;;;;;6156552;23;19987;-94
2023/09/27 00:33:54;;;;;;;;;;;;;;;;;;6156685;23;19987;-93
2023/09/27 00:36:20;;;;;;;;;;;;;;;;;;6156920;23;20353;-92
2023/09/27 00:38:46;;;;;;;;;;;;;;;;;;6156452;23;19932;-90
2023/09/27 00:41:12;;;;;;;;;;;;;;;;;;6156080;23;19908;-90
2023/09/27 00:43:38;;;;;;;;;;;;;;;;;;6154330;23;19996;-90
2023/09/27 00:46:13;;;;;;;;;;;;;;;;;;6154448;23;21797;-90
2023/09/27 00:48:39;;;;;;;;;;;;;;;;;;6154223;23;20380;-90
2023/09/27 00:51:05;;;;;;;;;;;;;;;;;;6154529;23;19936;-90
2023/09/27 00:53:31;;;;;;;;;;;;;;;;;;6155933;23;19908;-90
2023/09/27 00:55:57;;;;;;;;;;;;;;;;;;6181293;23;19908;-89
2023/09/27 00:58:23;;;;;;;;;;;;;;;;;;6156059;23;19908;-90
2023/09/27 01:00:52;;;;;;;;;;;;;;;;;;6155647;23;19910;-90
2023/09/27 01:03:18;;;;;;;;;;;;;;;;;;6157091;23;19922;-90
2023/09/27 01:05:44;;;;;;;;;;;;;;;;;;6153631;23;19991;-91
2023/09/27 01:08:10;;;;;;;;;;;;;;;;;;6153520;23;19916;-90
2023/09/27 01:10:36;;;;;;;;;;;;;;;;;;6153959;23;19963;-90
2023/09/27 01:13:02;;;;;;;;;;;;;;;;;;6154534;23;20759;-90
2023/09/27 01:15:27;;;;;;;;;;;;;;;;;;6154094;23;19994;-90
2023/09/27 01:17:53;;;;;;;;;;;;;;;;;;6156160;23;19909;-90
2023/09/27 01:20:20;;;;;;;;;;;;;;;;;;6180511;23;19942;-90
2023/09/27 01:22:46;;;;;;;;;;;;;;;;;;6155673;23;19908;-90
2023/09/27 01:25:12;;;;;;;;;;;;;;;;;;6180247;23;20313;-89
2023/09/27 01:27:38;;;;;;;;;;;;;;;;;;6180064;23;19943;-90
2023/09/27 01:30:05;;;;;;;;;;;;;;;;;;6153081;23;19908;-89
2023/09/27 01:32:31;;;;;;;;;;;;;;;;;;6153488;23;19908;-89
2023/09/27 01:34:57;;;;;;;;;;;;;;;;;;6153405;23;19955;-90
2023/09/27 01:37:23;;;;;;;;;;;;;;;;;;6153111;23;20443;-89
2023/09/27 01:39:49;;;;;;;;;;;;;;;;;;6153363;23;19987;-90
2023/09/27 01:42:15;;;;;;;;;;;;;;;;;;6153694;23;19979;-89
2023/09/27 01:44:41;;;;;;;;;;;;;;;;;;6179946;23;20323;-90
2023/09/27 01:47:07;;;;;;;;;;;;;;;;;;6153731;23;19916;-89
2023/09/27 01:49:33;;;;;;;;;;;;;;;;;;6180406;23;19935;-90
2023/09/27 01:51:59;;;;;;;;;;;;;;;;;;6154057;23;19904;-89
2023/09/27 01:54:25;;;;;;;;;;;;;;;;;;6154031;23;19904;-90
2023/09/27 01:56:51;;;;;;;;;;;;;;;;;;6154263;23;19954;-89
2023/09/27 01:59:17;;;;;;;;;;;;;;;;;;6152650;23;19935;-89
2023/09/27 02:01:43;;;;;;;;;;;;;;;;;;6156275;22;19907;-89
2023/09/27 02:04:09;;;;;;;;;;;;;;;;;;6153119;23;19919;-89
2023/09/27 02:06:35;;;;;;;;;;;;;;;;;;6179868;23;19919;-88
2023/09/27 02:09:01;;;;;;;;;;;;;;;;;;6178614;23;20331;-88
2023/09/27 02:11:27;;;;;;;;;;;;;;;;;;6153515;23;19912;-89
2023/09/27 02:13:52;;;;;;;;;;;;;;;;;;6152499;23;20231;-88
2023/09/27 02:16:18;;;;;;;;;;;;;;;;;;6152830;23;20507;-89
2023/09/27 02:18:44;;;;;;;;;;;;;;;;;;6150387;23;19935;-90
2023/09/27 02:21:10;;;;;;;;;;;;;;;;;;6153294;23;19912;-88
2023/09/27 02:23:36;;;;;;;;;;;;;;;;;;6152079;23;19915;-90
2023/09/27 02:26:02;;;;;;;;;;;;;;;;;;6180777;23;19904;-88
2023/09/27 02:28:30;;;;;;;;;;;;;;;;;;6154215;23;20198;-89
2023/09/27 02:30:56;;;;;;;;;;;;;;;;;;6155756;23;19911;-89
2023/09/27 02:33:22;;;;;;;;;;;;;;;;;;6155594;23;20156;-89
2023/09/27 02:35:48;;;;;;;;;;;;;;;;;;6153824;23;19908;-89
2023/09/27 02:38:14;;;;;;;;;;;;;;;;;;6155408;23;19904;-90
2023/09/27 02:40:40;;;;;;;;;;;;;;;;;;6156515;23;19909;-90
2023/09/27 02:43:06;;;;;;;;;;;;;;;;;;6156264;23;19919;-89
2023/09/27 02:45:32;;;;;;;;;;;;;;;;;;6156138;23;19909;-89
2023/09/27 02:47:58;;;;;;;;;;;;;;;;;;6155769;23;19916;-89
2023/09/27 02:50:24;;;;;;;;;;;;;;;;;;6155017;23;19979;-89
2023/09/27 02:52:50;;;;;;;;;;;;;;;;;;6156917;23;20556;-89
2023/09/27 02:55:16;;;;;;;;;;;;;;;;;;6156313;23;19908;-90
2023/09/27 02:57:50;;;;;;;;;;;;;;;;;;6182733;23;20082;-88
2023/09/27 03:00:17;;;;;;;;;;;;;;;;;;6182328;23;19912;-89
2023/09/27 03:02:43;;;;;;;;;;;;;;;;;;6157327;23;19939;-89
2023/09/27 03:05:09;;;;;;;;;;;;;;;;;;6155188;23;19908;-89
2023/09/27 03:07:35;;;;;;;;;;;;;;;;;;6155723;23;19920;-89
2023/09/27 03:10:01;;;;;;;;;;;;;;;;;;6155023;23;20344;-89
2023/09/27 03:12:28;;;;;;;;;;;;;;;;;;6156336;23;19928;-89
2023/09/27 03:14:54;;;;;;;;;;;;;;;;;;6154846;23;19908;-90
2023/09/27 03:17:20;;;;;;;;;;;;;;;;;;6155180;23;19908;-90
2023/09/27 03:19:46;;;;;;;;;;;;;;;;;;6156601;23;20327;-90
2023/09/27 03:22:12;;;;;;;;;;;;;;;;;;6156498;23;19930;-89
2023/09/27 03:24:37;;;;;;;;;;;;;;;;;;6155994;23;19904;-90
2023/09/27 03:27:04;;;;;;;;;;;;;;;;;;6156568;23;20370;-89
2023/09/27 03:29:31;;;;;;;;;;;;;;;;;;6155565;23;19983;-89
2023/09/27 03:31:56;;;;;;;;;;;;;;;;;;6181380;23;19908;-89
2023/09/27 03:34:22;;;;;;;;;;;;;;;;;;6155421;23;19958;-90
2023/09/27 03:36:55;;;;;;;;;;;;;;;;;;6154628;23;19908;-90
2023/09/27 03:39:22;;;;;;;;;;;;;;;;;;6155384;23;19935;-90
2023/09/27 03:41:48;;;;;;;;;;;;;;;;;;6154724;23;19919;-90
2023/09/27 03:44:14;;;;;;;;;;;;;;;;;;6154311;23;19912;-90
2023/09/27 03:46:39;;;;;;;;;;;;;;;;;;6154698;23;19919;-90
2023/09/27 03:49:07;;;;;;;;;;;;;;;;;;6189403;23;19912;-94
2023/09/27 03:51:33;;;;;;;;;;;;;;;;;;6164277;23;19916;-91
2023/09/27 03:53:58;;;;;;;;;;;;;;;;;;6159990;23;20251;-93
2023/09/27 03:56:24;;;;;;;;;;;;;;;;;;6159221;23;19904;-94
2023/09/27 03:58:50;;;;;;;;;;;;;;;;;;6160161;23;19971;-94
2023/09/27 04:01:16;;;;;;;;;;;;;;;;;;6156759;23;19959;-93
2023/09/27 04:03:42;;;;;;;;;;;;;;;;;;6164099;23;19916;-93
2023/09/27 04:06:08;;;;;;;;;;;;;;;;;;6160658;23;19912;-91
2023/09/27 04:08:34;;;;;;;;;;;;;;;;;;6158408;23;20342;-93
2023/09/27 04:11:00;;;;;;;;;;;;;;;;;;6162289;23;20031;-91
2023/09/27 04:13:26;;;;;;;;;;;;;;;;;;6155559;23;19904;-93
2023/09/27 04:15:52;;;;;;;;;;;;;;;;;;6155539;23;19908;-93
2023/09/27 04:18:18;;;;;;;;;;;;;;;;;;6155116;23;19909;-94
2023/09/27 04:20:44;;;;;;;;;;;;;;;;;;6156437;23;19932;-92
2023/09/27 04:23:10;;;;;;;;;;;;;;;;;;6161195;23;19908;-90
2023/09/27 04:25:36;;;;;;;;;;;;;;;;;;6156900;23;19944;-91
2023/09/27 04:28:02;;;;;;;;;;;;;;;;;;6155513;23;19955;-93
2023/09/27 04:30:28;;;;;;;;;;;;;;;;;;6156297;23;19991;-93
2023/09/27 04:32:54;;;;;;;;;;;;;;;;;;6155559;23;19915;-93
2023/09/27 04:35:20;;;;;;;;;;;;;;;;;;6156185;23;19908;-93
2023/09/27 04:37:45;;;;;;;;;;;;;;;;;;6156042;23;19983;-94
2023/09/27 04:40:12;;;;;;;;;;;;;;;;;;6155128;23;19961;-92
2023/09/27 04:42:37;;;;;;;;;;;;;;;;;;6155017;23;19915;-93
2023/09/27 04:45:04;;;;;;;;;;;;;;;;;;6155133;23;20620;-93
2023/09/27 04:47:30;;;;;;;;;;;;;;;;;;6160560;23;20301;-92
2023/09/27 04:49:56;;;;;;;;;;;;;;;;;;6163491;23;20396;-93
2023/09/27 04:52:22;;;;;;;;;;;;;;;;;;6162697;23;20003;-94
2023/09/27 04:54:49;;;;;;;;;;;;;;;;;;6164321;23;19912;-93
2023/09/27 04:57:14;;;;;;;;;;;;;;;;;;6163484;23;19975;-91
2023/09/27 04:59:41;;;;;;;;;;;;;;;;;;6154887;23;20012;-90
2023/09/27 05:02:07;;;;;;;;;;;;;;;;;;6156593;22;19967;-90
2023/09/27 05:04:33;;;;;;;;;;;;;;;;;;6155342;23;19916;-90
2023/09/27 05:06:59;;;;;;;;;;;;;;;;;;6153917;23;19916;-90
2023/09/27 05:09:25;;;;;;;;;;;;;;;;;;6155693;23;19918;-90
2023/09/27 05:11:51;;;;;;;;;;;;;;;;;;6154641;23;20535;-89
2023/09/27 05:14:17;;;;;;;;;;;;;;;;;;6153182;23;19915;-89
2023/09/27 05:16:43;;;;;;;;;;;;;;;;;;6150783;23;19908;-89
2023/09/27 05:19:09;;;;;;;;;;;;;;;;;;6154060;23;19967;-93
2023/09/27 05:21:39;;;;;;;;;;;;;;;;;;6161811;23;19919;-93
2023/09/27 05:24:06;;;;;;;;;;;;;;;;;;6164422;23;19912;-93
2023/09/27 05:26:32;;;;;;;;;;;;;;;;;;6158563;23;19947;-93
2023/09/27 05:28:58;;;;;;;;;;;;;;;;;;6156289;23;20320;-93
2023/09/27 05:31:24;;;;;;;;;;;;;;;;;;6155321;23;19908;-92
2023/09/27 05:33:50;;;;;;;;;;;;;;;;;;6156463;23;19959;-92
2023/09/27 05:36:16;;;;;;;;;;;;;;;;;;6155965;23;19908;-91
2023/09/27 05:38:44;;;;;;;;;;;;;;;;;;6158664;23;19905;-93
2023/09/27 05:41:10;;;;;;;;;;;;;;;;;;6157554;23;19908;-92
2023/09/27 05:43:36;;;;;;;;;;;;;;;;;;6157878;23;19915;-92
2023/09/27 05:46:02;;;;;;;;;;;;;;;;;;6183158;23;19920;-91
2023/09/27 05:48:30;;;;;;;;;;;;;;;;;;6155078;23;19908;-90
2023/09/27 05:50:59;;;;;;;;;;;;;;;;;;6154501;23;19916;-89
2023/09/27 05:53:25;;;;;;;;;;;;;;;;;;6155644;23;19959;-93
2023/09/27 05:55:52;;;;;;;;;;;;;;;;;;6154681;23;19915;-92
2023/09/27 05:58:19;;;;;;;;;;;;;;;;;;6155386;23;19915;-92
2023/09/27 06:00:47;;;;;;;;;;;;;;;;;;6154695;23;20039;-91
2023/09/27 06:03:13;;;;;;;;;;;;;;;;;;6159115;23;19939;-93
2023/09/27 06:05:39;;;;;;;;;;;;;;;;;;6155633;23;19905;-92
2023/09/27 06:08:05;;;;;;;;;;;;;;;;;;6155058;23;20270;-89
2023/09/27 06:10:31;;;;;;;;;;;;;;;;;;6154796;23;19920;-89
2023/09/27 06:12:57;;;;;;;;;;;;;;;;;;6155485;23;19905;-89
2023/09/27 06:15:23;;;;;;;;;;;;;;;;;;6180993;23;20319;-88
2023/09/27 06:17:49;;;;;;;;;;;;;;;;;;6152870;23;19947;-89
2023/09/27 06:20:22;;;;;;;;;;;;;;;;;;6153868;23;19909;-88
2023/09/27 06:22:54;;;;;;;;;;;;;;;;;;6153881;23;19911;-88
2023/09/27 06:25:23;;;;;;;;;;;;;;;;;;6179588;23;19971;-87
2023/09/27 06:27:49;;;;;;;;;;;;;;;;;;6181285;23;19912;-85
2023/09/27 06:30:15;;;;;;;;;;;;;;;;;;6154218;23;20335;-86
2023/09/27 06:32:42;;;;;;;;;;;;;;;;;;6177617;23;19996;-86
2023/09/27 06:35:12;;;;;;;;;;;;;;;;;;6154836;23;19957;-89
2023/09/27 06:37:38;;;;;;;;;;;;;;;;;;6154198;23;19912;-88
2023/09/27 06:40:08;;;;;;;;;;;;;;;;;;6178945;23;19936;-88
2023/09/27 06:42:34;;;;;;;;;;;;;;;;;;6154216;23;19955;-88
2023/09/27 06:45:00;;;;;;;;;;;;;;;;;;6154700;23;19904;-88
2023/09/27 06:47:27;;;;;;;;;;;;;;;;;;6154292;23;19965;-87
2023/09/27 06:49:56;;;;;;;;;;;;;;;;;;6154441;23;19905;-87
2023/09/27 06:52:22;;;;;;;;;;;;;;;;;;6154612;23;20330;-87
2023/09/27 06:54:48;;;;;;;;;;;;;;;;;;6153873;23;19915;-88
2023/09/27 06:57:14;;;;;;;;;;;;;;;;;;6153954;23;19983;-88
2023/09/27 06:59:40;;;;;;;;;;;;;;;;;;6154360;23;19987;-87
2023/09/27 07:02:06;;;;;;;;;;;;;;;;;;6154357;23;19915;-88
2023/09/27 07:04:32;;;;;;;;;;;;;;;;;;6156453;23;19924;-90
2023/09/27 07:07:00;;;;;;;;;;;;;;;;;;6154381;23;19916;-88
2023/09/27 07:09:26;;;;;;;;;;;;;;;;;;6154598;23;19958;-88
2023/09/27 07:11:52;;;;;;;;;;;;;;;;;;6154003;23;19916;-88
2023/09/27 07:14:19;;;;;;;;;;;;;;;;;;6154054;23;19915;-88
2023/09/27 07:16:46;;;;;;;;;;;;;;;;;;6154624;23;19924;-89
2023/09/27 07:19:13;;;;;;;;;;;;;;;;;;6154626;23;20255;-89
2023/09/27 07:21:39;;;;;;;;;;;;;;;;;;6155146;23;19971;-89
2023/09/27 07:24:05;;;;;;;;;;;;;;;;;;6155699;23;20365;-89
2023/09/27 07:26:30;;;;;;;;;;;;;;;;;;6156251;23;19987;-89
2023/09/27 07:28:56;;;;;;;;;;;;;;;;;;6156119;23;19909;-89
2023/09/27 07:31:38;;;;;;;;;;;;;;;;;;6154741;23;19911;-88
2023/09/27 07:34:05;;;;;;;;;;;;;;;;;;6154721;23;19904;-89
2023/09/27 07:36:31;;;;;;;;;;;;;;;;;;6152951;23;19984;-89
2023/09/27 07:38:58;;;;;;;;;;;;;;;;;;6154205;23;20334;-89
2023/09/27 07:41:24;;;;;;;;;;;;;;;;;;6153974;23;19905;-90
2023/09/27 07:43:50;;;;;;;;;;;;;;;;;;6156120;23;19911;-89
2023/09/27 07:46:17;;;;;;;;;;;;;;;;;;6153956;23;19912;-89
2023/09/27 07:48:43;;;;;;;;;;;;;;;;;;6154743;23;20349;-88
2023/09/27 07:51:09;;;;;;;;;;;;;;;;;;6154594;23;19908;-89
2023/09/27 07:53:37;;;;;;;;;;;;;;;;;;6154999;23;19908;-89
2023/09/27 07:56:03;;;;;;;;;;;;;;;;;;6154671;23;20243;-89
2023/09/27 07:58:35;;;;;;;;;;;;;;;;;;6155494;23;19916;-89
2023/09/27 08:01:07;;;;;;;;;;;;;;;;;;6154608;23;19915;-87
2023/09/27 08:03:33;;;;;;;;;;;;;;;;;;6154241;23;19923;-89
2023/09/27 08:06:04;;;;;;;;;;;;;;;;;;6154788;23;19908;-88
2023/09/27 08:08:30;;;;;;;;;;;;;;;;;;6153401;23;19919;-89
2023/09/27 08:10:57;;;;;;;;;;;;;;;;;;6153720;23;19905;-88
2023/09/27 08:13:24;;;;;;;;;;;;;;;;;;6152975;23;20417;-87
2023/09/27 08:15:50;;;;;;;;;;;;;;;;;;6180938;23;19911;-88
2023/09/27 08:18:16;;;;;;;;;;;;;;;;;;6153270;23;19904;-87
2023/09/27 08:20:42;;;;;;;;;;;;;;;;;;6152664;23;19915;-87
2023/09/27 08:23:08;;;;;;;;;;;;;;;;;;6153070;23;19908;-88
2023/09/27 08:25:36;;;;;;;;;;;;;;;;;;6152487;23;19936;-88
2023/09/27 08:28:03;;;;;;;;;;;;;;;;;;6153766;23;20369;-89
2023/09/27 08:30:29;;;;;;;;;;;;;;;;;;6153023;23;19912;-89
2023/09/27 08:32:55;;;;;;;;;;;;;;;;;;6152897;23;19940;-89
2023/09/27 08:35:21;;;;;;;;;;;;;;;;;;6153159;23;20239;-89
2023/09/27 08:37:47;;;;;;;;;;;;;;;;;;6153059;23;19958;-89
2023/09/27 08:40:13;;;;;;;;;;;;;;;;;;6154486;23;19939;-89
2023/09/27 08:42:47;;;;;;;;;;;;;;;;;;6152187;23;19905;-88
2023/09/27 08:45:22;;;;;;;;;;;;;;;;;;6153791;23;19912;-88
2023/09/27 08:47:55;;;;;;;;;;;;;;;;;;6152219;23;20805;-88
2023/09/27 08:50:21;;;;;;;;;;;;;;;;;;6153236;23;19960;-89
2023/09/27 08:53:02;;;;;;;;;;;;;;;;;;6152828;23;19995;-88
2023/09/27 08:55:29;;;;;;;;;;;;;;;;;;6153284;23;19911;-89
2023/09/27 08:57:55;;;;;;;;;;;;;;;;;;6154246;23;19932;-89
2023/09/27 09:00:38;;;;;;;;;;;;;;;;;;6153806;23;19959;-89
2023/09/27 09:03:04;;;;;;;;;;;;;;;;;;6120188;23;20367;-90
2023/09/27 09:05:31;;;;;;;;;;;;;;;;;;6090322;23;19914;-88
2023/09/27 09:08:07;;;;;;;;;;;;;;;;;;;;;
2023/09/27 09:10:33;;;;;;;;;;;;;;;;;;6089887;23;20004;-88
2023/09/27 09:13:00;;;;;;;;;;;;;;;;;;6062944;23;20332;-89
2023/09/27 09:15:26;;;;;;;;;;;;;;;;;;6063512;23;19909;-90
2023/09/27 09:17:53;;;;;;;;;;;;;;;;;;6063422;23;20551;-89
2023/09/27 09:20:23;;;;;;;;;;;;;;;;;;6063709;23;19910;-89
2023/09/27 09:22:53;;;;;;;;;;;;;;;;;;6063652;23;19999;-89
2023/09/27 09:25:20;;;;;;;;;;;;;;;;;;6064367;23;19906;-89
2023/09/27 09:27:46;;;;;;;;;;;;;;;;;;6080172;23;19936;-90
2023/09/27 09:30:15;;;;;;;;;;;;;;;;;;6092963;23;20015;-89
2023/09/27 09:32:41;;;;;;;;;;;;;;;;;;6092706;23;19939;-89
2023/09/27 09:35:09;;;;;;;;;;;;;;;;;;6091766;23;20328;-89
2023/09/27 09:37:35;;;;;;;;;;;;;;;;;;6092621;23;19909;-90
2023/09/27 09:40:01;;;;;;;;;;;;;;;;;;6093626;23;19919;-89
2023/09/27 09:42:27;;;;;;;;;;;;;;;;;;6105195;23;19958;-89
2023/09/27 09:44:53;;;;;;;;;;;;;;;;;;6150193;23;20238;-89
2023/09/27 09:47:22;;;;;;;;;;;;;;;;;;6124594;23;19944;-93
2023/09/27 09:49:47;;;;;;;;;;;;;;;;;;6126164;23;20251;-92
2023/09/27 09:52:23;;;;;;;;;;;;;;;;;;6125205;23;19909;-93
2023/09/27 09:54:49;;;;;;;;;;;;;;;;;;6124561;23;19908;-92
2023/09/27 09:57:19;;;;;;;;;;;;;;;;;;6125413;23;20316;-92
2023/09/27 09:59:45;;;;;;;;;;;;;;;;;;6126138;23;20239;-92
2023/09/27 10:02:11;;;;;;;;;;;;;;;;;;6151364;23;19984;-92
2023/09/27 10:04:37;;;;;;;;;;;;;;;;;;6168577;22;20354;-91
2023/09/27 10:07:03;;;;;;;;;;;;;;;;;;6181061;23;19920;-89
2023/09/27 10:09:29;;;;;;;;;;;;;;;;;;6152720;23;20233;-89
2023/09/27 10:11:55;;;;;;;;;;;;;;;;;;6153610;23;19932;-89
2023/09/27 10:14:21;;;;;;;;;;;;;;;;;;6152122;23;19914;-89
2023/09/27 10:16:48;;;;;;;;;;;;;;;;;;6154261;23;19908;-89
2023/09/27 10:19:14;;;;;;;;;;;;;;;;;;6155197;23;19962;-90
2023/09/27 10:21:40;;;;;;;;;;;;;;;;;;6154220;23;20361;-89
2023/09/27 10:24:07;;;;;;;;;;;;;;;;;;6154461;23;19916;-89
2023/09/27 10:26:33;;;;;;;;;;;;;;;;;;6154129;23;19904;-89
2023/09/27 10:29:16;;;;;;;;;;;;;;;;;;6154282;23;19904;-89
2023/09/27 10:31:42;;;;;;;;;;;;;;;;;;6154196;23;19908;-90
2023/09/27 10:34:08;;;;;;;;;;;;;;;;;;6153866;23;19967;-90
2023/09/27 10:36:35;;;;;;;;;;;;;;;;;;6153251;23;19908;-89
2023/09/27 10:39:01;;;;;;;;;;;;;;;;;;6154863;23;19905;-89
2023/09/27 10:41:26;;;;;;;;;;;;;;;;;;6153220;23;20482;-89
2023/09/27 10:43:54;;;;;;;;;;;;;;;;;;6153632;23;19908;-89
2023/09/27 10:46:20;;;;;;;;;;;;;;;;;;6152915;23;19936;-90
2023/09/27 10:48:46;;;;;;;;;;;;;;;;;;6155396;23;19924;-89
2023/09/27 10:51:12;;;;;;;;;;;;;;;;;;6155247;23;19908;-89
2023/09/27 10:53:38;;;;;;;;;;;;;;;;;;6155841;23;19908;-89
2023/09/27 10:56:04;;;;;;;;;;;;;;;;;;6154380;23;20307;-89
2023/09/27 10:58:30;;;;;;;;;;;;;;;;;;6156520;23;19908;-89
2023/09/27 11:00:56;;;;;;;;;;;;;;;;;;6155421;23;19908;-88
2023/09/27 11:03:23;;;;;;;;;;;;;;;;;;6154841;23;19954;-89
2023/09/27 11:05:49;;;;;;;;;;;;;;;;;;6158472;23;19990;-90
2023/09/27 11:08:15;;;;;;;;;;;;;;;;;;6156575;23;19914;-90
2023/09/27 11:10:41;;;;;;;;;;;;;;;;;;6155743;23;20489;-90
2023/09/27 11:13:09;;;;;;;;;;;;;;;;;;6154775;23;19930;-90
2023/09/27 11:15:35;;;;;;;;;;;;;;;;;;6180467;23;19904;-89
2023/09/27 11:18:01;;;;;;;;;;;;;;;;;;6154874;23;20035;-91
2023/09/27 11:20:28;;;;;;;;;;;;;;;;;;6154716;23;19992;-89
2023/09/27 11:22:54;;;;;;;;;;;;;;;;;;6154459;23;19963;-90
2023/09/27 11:25:20;;;;;;;;;;;;;;;;;;6155229;23;19904;-90
2023/09/27 11:27:46;;;;;;;;;;;;;;;;;;6153803;23;19913;-90
2023/09/27 11:30:15;;;;;;;;;;;;;;;;;;6180674;23;19935;-90
2023/09/27 11:32:41;;;;;;;;;;;;;;;;;;6154085;23;19905;-89
2023/09/27 11:35:07;;;;;;;;;;;;;;;;;;6180570;23;19904;-90
2023/09/27 11:37:36;;;;;;;;;;;;;;;;;;6154908;23;19904;-89
2023/09/27 11:40:03;;;;;;;;;;;;;;;;;;6153849;23;19991;-90
2023/09/27 11:42:29;;;;;;;;;;;;;;;;;;6153257;23;20187;-89
2023/09/27 11:44:55;;;;;;;;;;;;;;;;;;6153429;23;20301;-90
2023/09/27 11:47:21;;;;;;;;;;;;;;;;;;6152966;23;20270;-90
2023/09/27 11:49:47;;;;;;;;;;;;;;;;;;6153944;23;20370;-90
2023/09/27 11:52:13;;;;;;;;;;;;;;;;;;6154456;23;19920;-89
2023/09/27 11:54:42;;;;;;;;;;;;;;;;;;6153345;23;19915;-89
2023/09/27 11:57:08;;;;;;;;;;;;;;;;;;6155078;23;19990;-89
2023/09/27 11:59:33;;;;;;;;;;;;;;;;;;6153441;23;19908;-90
2023/09/27 12:01:59;;;;;;;;;;;;;;;;;;6153318;23;19935;-90
2023/09/27 12:04:25;;;;;;;;;;;;;;;;;;6156529;23;19963;-90
2023/09/27 12:06:51;;;;;;;;;;;;;;;;;;6180423;23;19912;-89
2023/09/27 12:09:17;;;;;;;;;;;;;;;;;;6156197;23;19908;-93
2023/09/27 12:11:43;;;;;;;;;;;;;;;;;;6157704;23;20293;-92
2023/09/27 12:14:09;;;;;;;;;;;;;;;;;;6155347;23;19924;-94
2023/09/27 12:16:35;;;;;;;;;;;;;;;;;;6156139;23;20216;-93
2023/09/27 12:19:01;;;;;;;;;;;;;;;;;;6154893;23;19904;-94
2023/09/27 12:21:31;;;;;;;;;;;;;;;;;;6156291;23;19928;-95
2023/09/27 12:24:05;;;;;;;;;;;;;;;;;;6156748;23;19932;-94
2023/09/27 12:26:33;;;;;;;;;;;;;;;;;;6156449;23;19976;-94
2023/09/27 12:29:00;;;;;;;;;;;;;;;;;;6154988;23;19927;-91
2023/09/27 12:31:26;;;;;;;;;;;;;;;;;;6153587;23;20291;-90
2023/09/27 12:33:52;;;;;;;;;;;;;;;;;;6154672;23;19971;-91
2023/09/27 12:36:18;;;;;;;;;;;;;;;;;;6155063;23;20387;-92
2023/09/27 12:38:44;;;;;;;;;;;;;;;;;;6155193;23;19908;-91
2023/09/27 12:41:10;;;;;;;;;;;;;;;;;;6154157;23;19912;-90
2023/09/27 12:43:36;;;;;;;;;;;;;;;;;;6154829;23;20323;-90
2023/09/27 12:46:02;;;;;;;;;;;;;;;;;;6155402;23;19915;-90
2023/09/27 12:48:28;;;;;;;;;;;;;;;;;;6155245;23;19919;-90
2023/09/27 12:50:55;;;;;;;;;;;;;;;;;;6155720;23;19982;-91
2023/09/27 12:53:21;;;;;;;;;;;;;;;;;;6180767;23;19908;-90
2023/09/27 12:55:47;;;;;;;;;;;;;;;;;;6154721;23;19927;-90
2023/09/27 12:58:16;;;;;;;;;;;;;;;;;;6181111;23;19954;-91
2023/09/27 13:00:42;;;;;;;;;;;;;;;;;;6153934;23;19912;-90
2023/09/27 13:03:08;;;;;;;;;;;;;;;;;;6154338;23;19939;-91
2023/09/27 13:05:34;;;;;;;;;;;;;;;;;;6156056;23;20286;-91
2023/09/27 13:07:59;;;;;;;;;;;;;;;;;;6154843;23;20274;-90
2023/09/27 13:10:26;;;;;;;;;;;;;;;;;;6153358;23;19939;-90
2023/09/27 13:12:51;;;;;;;;;;;;;;;;;;6154145;23;19908;-91
2023/09/27 13:15:17;;;;;;;;;;;;;;;;;;6154369;23;19916;-90
2023/09/27 13:17:43;;;;;;;;;;;;;;;;;;6155019;23;20386;-91
2023/09/27 13:20:10;;;;;;;;;;;;;;;;;;6153920;23;19928;-90
2023/09/27 13:22:36;;;;;;;;;;;;;;;;;;6154329;23;19935;-90
2023/09/27 13:25:03;;;;;;;;;;;;;;;;;;6152814;23;19908;-91
2023/09/27 13:27:29;;;;;;;;;;;;;;;;;;6154805;23;19964;-92
2023/09/27 13:29:55;;;;;;;;;;;;;;;;;;6152530;23;19932;-91
2023/09/27 13:32:21;;;;;;;;;;;;;;;;;;6180469;23;19987;-91
2023/09/27 13:34:47;;;;;;;;;;;;;;;;;;6180738;23;20343;-91
2023/09/27 13:37:13;;;;;;;;;;;;;;;;;;6155820;23;19909;-91
2023/09/27 13:39:39;;;;;;;;;;;;;;;;;;6154254;23;19947;-91
2023/09/27 13:42:05;;;;;;;;;;;;;;;;;;6153777;23;19908;-91
2023/09/27 13:44:31;;;;;;;;;;;;;;;;;;6153888;23;19904;-91
2023/09/27 13:46:57;;;;;;;;;;;;;;;;;;6154103;23;19966;-91
2023/09/27 13:49:23;;;;;;;;;;;;;;;;;;6152079;23;20438;-91
2023/09/27 13:51:49;;;;;;;;;;;;;;;;;;6152812;23;19908;-91
2023/09/27 13:54:15;;;;;;;;;;;;;;;;;;6151755;23;19939;-91
2023/09/27 13:56:41;;;;;;;;;;;;;;;;;;6154193;23;20453;-91
2023/09/27 13:59:07;;;;;;;;;;;;;;;;;;6154335;23;19932;-91
2023/09/27 14:01:34;;;;;;;;;;;;;;;;;;6153226;23;19915;-91
2023/09/27 14:04:01;;;;;;;;;;;;;;;;;;6152500;22;19958;-91
2023/09/27 14:06:26;;;;;;;;;;;;;;;;;;6153424;23;19916;-91
2023/09/27 14:08:52;;;;;;;;;;;;;;;;;;6153189;23;20377;-91
2023/09/27 14:11:20;;;;;;;;;;;;;;;;;;6154537;23;20454;-90
2023/09/27 14:13:47;;;;;;;;;;;;;;;;;;6152642;23;20258;-91
2023/09/27 14:16:15;;;;;;;;;;;;;;;;;;6153730;23;20479;-90
2023/09/27 14:18:41;;;;;;;;;;;;;;;;;;6153355;23;19911;-90
2023/09/27 14:21:06;;;;;;;;;;;;;;;;;;6153880;23;19940;-91
2023/09/27 14:23:33;;;;;;;;;;;;;;;;;;6152277;23;19949;-91
2023/09/27 14:29:00;;;;;;;;;;;;;;;;;;6090687;23;20008;-90
2023/09/27 14:31:28;;;;;;;;;;;;;;;;;;6134615;23;20335;-90
2023/09/27 14:33:54;;;;;;;;;;;;;;;;;;6154359;23;20331;-90
2023/09/27 14:36:22;;;;;;;;;;;;;;;;;;6180338;23;19915;-90
2023/09/27 14:38:51;;;;;;;;;;;;;;;;;;6154352;23;19912;-89
2023/09/27 14:41:17;;;;;;;;;;;;;;;;;;6155631;23;19962;-88
2023/09/27 14:43:43;;;;;;;;;;;;;;;;;;6154975;23;20250;-88
2023/09/27 14:46:09;;;;;;;;;;;;;;;;;;6155089;23;19908;-88
2023/09/27 14:48:35;;;;;;;;;;;;;;;;;;6156477;23;20542;-93
2023/09/27 14:51:00;;;;;;;;;;;;;;;;;;6155979;23;19904;-92
2023/09/27 14:53:26;;;;;;;;;;;;;;;;;;6156653;23;20672;-90
2023/09/27 14:55:55;;;;;;;;;;;;;;;;;;6156526;23;19939;-92
2023/09/27 14:58:22;;;;;;;;;;;;;;;;;;6157106;23;19911;-93
2023/09/27 15:00:48;;;;;;;;;;;;;;;;;;6155745;23;19904;-92
2023/09/27 15:03:13;;;;;;;;;;;;;;;;;;6155194;23;19919;-93
2023/09/27 15:05:39;;;;;;;;;;;;;;;;;;6159220;23;19919;-91
2023/09/27 15:08:05;;;;;;;;;;;;;;;;;;6157055;23;20038;-91
2023/09/27 15:10:31;;;;;;;;;;;;;;;;;;6156495;23;20247;-92
2023/09/27 15:12:57;;;;;;;;;;;;;;;;;;6155508;23;19904;-92
2023/09/27 15:15:24;;;;;;;;;;;;;;;;;;6155769;23;20184;-92
2023/09/27 15:17:50;;;;;;;;;;;;;;;;;;6155990;23;19911;-91
2023/09/27 15:20:58;;;;;;;;;;;;;;;;;;6155202;23;19905;-92
2023/09/27 15:25:58;;;;;;;;;;;;;;;;;;6178410;23;19983;-92
2023/09/27 15:28:24;;;;;;;;;;;;;;;;;;6156684;23;20323;-92
2023/09/27 15:30:50;;;;;;;;;;;;;;;;;;6156809;23;19991;-91
2023/09/27 15:33:16;;;;;;;;;;;;;;;;;;6156167;23;19908;-92
2023/09/27 15:35:42;;;;;;;;;;;;;;;;;;6155517;23;20111;-92
2023/09/27 15:41:14;;;;;;;;;;;;;;;;;;6180709;23;19919;-89
2023/09/27 15:43:49;;;;;;;;;;;;;;;;;;6179357;23;19908;-88
2023/09/27 15:46:15;;;;;;;;;;;;;;;;;;6153186;23;19950;-87
2023/09/27 15:48:43;;;;;;;;;;;;;;;;;;6181022;23;19912;-88
2023/09/27 15:51:09;;;;;;;;;;;;;;;;;;6152265;23;19931;-88
2023/09/27 15:53:35;;;;;;;;;;;;;;;;;;6152684;23;19908;-89
2023/09/27 15:56:10;;;;;;;;;;;;;;;;;;6152399;23;19979;-88
2023/09/27 16:04:38;;;;;;;;;;;;;;;;;;6088159;23;19909;-88
2023/09/27 16:07:04;;;;;;;;;;;;;;;;;;6044249;23;19986;-88
2023/09/27 16:09:30;;;;;;;;;;;;;;;;;;6077456;23;19904;-87
2023/09/27 16:11:56;;;;;;;;;;;;;;;;;;6123824;23;19940;-89
2023/09/27 16:14:24;;;;;;;;;;;;;;;;;;6123408;23;19913;-87
2023/09/27 16:16:50;;;;;;;;;;;;;;;;;;6124871;23;19915;-88
2023/09/27 16:19:16;;;;;;;;;;;;;;;;;;6124602;23;19908;-88
2023/09/27 16:21:46;;;;;;;;;;;;;;;;;;6124011;23;20341;-89
2023/09/27 16:24:16;;;;;;;;;;;;;;;;;;6124586;23;20371;-89
2023/09/27 16:26:41;;;;;;;;;;;;;;;;;;6124585;23;19909;-88
2023/09/27 16:29:08;;;;;;;;;;;;;;;;;;6125360;23;20398;-88
2023/09/27 16:31:34;;;;;;;;;;;;;;;;;;6122780;23;19909;-87
2023/09/27 16:34:00;;;;;;;;;;;;;;;;;;6122911;23;19924;-88
2023/09/27 16:36:26;;;;;;;;;;;;;;;;;;6123016;23;20182;-87
2023/09/27 16:38:52;;;;;;;;;;;;;;;;;;6124122;23;19904;-88
2023/09/27 16:41:19;;;;;;;;;;;;;;;;;;6123842;23;19909;-87
2023/09/27 16:43:44;;;;;;;;;;;;;;;;;;6123617;23;19923;-88
2023/09/27 16:46:10;;;;;;;;;;;;;;;;;;6123233;23;19979;-88
2023/09/27 16:48:37;;;;;;;;;;;;;;;;;;6124684;23;19912;-88
2023/09/27 16:51:03;;;;;;;;;;;;;;;;;;6123523;23;20335;-88
2023/09/27 16:53:28;;;;;;;;;;;;;;;;;;6124620;23;19916;-88
2023/09/27 16:55:58;;;;;;;;;;;;;;;;;;6123929;23;19967;-88
2023/09/27 16:58:27;;;;;;;;;;;;;;;;;;6150803;23;19908;-88